sensor_id;sensor_type;location;lat;lon;timestamp;P1;durP1;ratioP1;P2;durP2;ratioP2
25127;SDS011;13107;51.304;6.866;2023-07-09T00:00:36;7.93;;;4.20;;
25127;SDS011;13107;51.304;6.866;2023-07-09T00:04:38;8.50;;;4.35;;
25127;SDS011;13107;51.304;6.866;2023-07-09T00:08:42;8.82;;;4.35;;
25127;SDS011;13107;51.304;6.866;2023-07-09T00:12:46;6.57;;;4.28;;
25127;SDS011;13107;51.304;6.866;2023-07-09T00:16:48;7.05;;;3.85;;
25127;SDS011;13107;51.304;6.866;2023-07-09T00:20:51;7.03;;;4.68;;
25127;SDS011;13107;51.304;6.866;2023-07-09T00:24:52;10.57;;;4.50;;
25127;SDS011;13107;51.304;6.866;2023-07-09T00:29:01;7.70;;;4.37;;
25127;SDS011;13107;51.304;6.866;2023-07-09T00:33:03;10.10;;;4.65;;
25127;SDS011;13107;51.304;6.866;2023-07-09T00:37:10;9.93;;;4.32;;
25127;SDS011;13107;51.304;6.866;2023-07-09T00:41:16;8.13;;;4.37;;
25127;SDS011;13107;51.304;6.866;2023-07-09T00:45:21;7.85;;;4.28;;
25127;SDS011;13107;51.304;6.866;2023-07-09T00:49:32;9.38;;;4.35;;
25127;SDS011;13107;51.304;6.866;2023-07-09T00:53:37;9.88;;;4.80;;
25127;SDS011;13107;51.304;6.866;2023-07-09T00:57:47;12.05;;;4.32;;
25127;SDS011;13107;51.304;6.866;2023-07-09T01:01:57;9.23;;;4.62;;
25127;SDS011;13107;51.304;6.866;2023-07-09T01:06:01;9.52;;;4.30;;
25127;SDS011;13107;51.304;6.866;2023-07-09T01:10:05;7.62;;;4.60;;
25127;SDS011;13107;51.304;6.866;2023-07-09T01:14:08;8.50;;;4.45;;
25127;SDS011;13107;51.304;6.866;2023-07-09T01:18:12;6.18;;;4.18;;
25127;SDS011;13107;51.304;6.866;2023-07-09T01:22:17;7.97;;;4.50;;
25127;SDS011;13107;51.304;6.866;2023-07-09T01:26:22;9.40;;;4.60;;
25127;SDS011;13107;51.304;6.866;2023-07-09T01:30:29;7.15;;;4.30;;
25127;SDS011;13107;51.304;6.866;2023-07-09T01:34:35;9.82;;;4.72;;
25127;SDS011;13107;51.304;6.866;2023-07-09T01:38:37;8.05;;;4.68;;
25127;SDS011;13107;51.304;6.866;2023-07-09T01:42:39;11.02;;;4.43;;
25127;SDS011;13107;51.304;6.866;2023-07-09T01:46:41;10.43;;;4.72;;
25127;SDS011;13107;51.304;6.866;2023-07-09T01:50:43;7.55;;;4.60;;
25127;SDS011;13107;51.304;6.866;2023-07-09T01:54:45;8.38;;;4.75;;
25127;SDS011;13107;51.304;6.866;2023-07-09T01:58:50;9.00;;;4.80;;
25127;SDS011;13107;51.304;6.866;2023-07-09T02:02:52;7.93;;;5.18;;
25127;SDS011;13107;51.304;6.866;2023-07-09T02:06:56;8.93;;;4.90;;
25127;SDS011;13107;51.304;6.866;2023-07-09T02:10:58;10.35;;;4.93;;
25127;SDS011;13107;51.304;6.866;2023-07-09T02:15:00;7.47;;;4.55;;
25127;SDS011;13107;51.304;6.866;2023-07-09T02:19:02;7.03;;;4.78;;
25127;SDS011;13107;51.304;6.866;2023-07-09T02:23:05;8.95;;;4.70;;
25127;SDS011;13107;51.304;6.866;2023-07-09T02:27:10;10.13;;;4.80;;
25127;SDS011;13107;51.304;6.866;2023-07-09T02:31:12;8.30;;;4.95;;
25127;SDS011;13107;51.304;6.866;2023-07-09T02:35:17;10.02;;;5.03;;
25127;SDS011;13107;51.304;6.866;2023-07-09T02:39:19;7.57;;;4.68;;
25127;SDS011;13107;51.304;6.866;2023-07-09T02:43:21;8.73;;;5.00;;
25127;SDS011;13107;51.304;6.866;2023-07-09T02:47:23;8.50;;;5.25;;
25127;SDS011;13107;51.304;6.866;2023-07-09T02:51:25;8.40;;;4.55;;
25127;SDS011;13107;51.304;6.866;2023-07-09T02:55:30;6.53;;;4.78;;
25127;SDS011;13107;51.304;6.866;2023-07-09T02:59:32;7.72;;;4.60;;
25127;SDS011;13107;51.304;6.866;2023-07-09T03:03:34;7.10;;;4.80;;
25127;SDS011;13107;51.304;6.866;2023-07-09T03:07:36;9.90;;;4.70;;
25127;SDS011;13107;51.304;6.866;2023-07-09T03:11:37;9.57;;;4.97;;
25127;SDS011;13107;51.304;6.866;2023-07-09T03:15:39;6.05;;;4.20;;
25127;SDS011;13107;51.304;6.866;2023-07-09T03:19:42;10.25;;;5.32;;
25127;SDS011;13107;51.304;6.866;2023-07-09T03:23:44;13.00;;;5.80;;
25127;SDS011;13107;51.304;6.866;2023-07-09T03:27:49;5.62;;;4.80;;
25127;SDS011;13107;51.304;6.866;2023-07-09T03:31:51;6.57;;;4.70;;
25127;SDS011;13107;51.304;6.866;2023-07-09T03:35:53;7.80;;;4.35;;
25127;SDS011;13107;51.304;6.866;2023-07-09T03:39:55;9.80;;;4.85;;
25127;SDS011;13107;51.304;6.866;2023-07-09T03:43:57;16.92;;;5.05;;
25127;SDS011;13107;51.304;6.866;2023-07-09T03:47:59;8.57;;;5.05;;
25127;SDS011;13107;51.304;6.866;2023-07-09T03:52:01;7.62;;;5.18;;
25127;SDS011;13107;51.304;6.866;2023-07-09T03:56:04;9.52;;;4.90;;
25127;SDS011;13107;51.304;6.866;2023-07-09T04:00:06;7.20;;;5.05;;
25127;SDS011;13107;51.304;6.866;2023-07-09T04:04:12;8.75;;;4.93;;
25127;SDS011;13107;51.304;6.866;2023-07-09T04:08:14;9.07;;;5.07;;
25127;SDS011;13107;51.304;6.866;2023-07-09T04:12:17;9.85;;;4.93;;
25127;SDS011;13107;51.304;6.866;2023-07-09T04:16:18;9.98;;;4.65;;
25127;SDS011;13107;51.304;6.866;2023-07-09T04:20:21;10.20;;;5.37;;
25127;SDS011;13107;51.304;6.866;2023-07-09T04:24:23;7.93;;;5.37;;
25127;SDS011;13107;51.304;6.866;2023-07-09T04:28:25;9.07;;;4.72;;
25127;SDS011;13107;51.304;6.866;2023-07-09T04:32:27;8.30;;;4.82;;
25127;SDS011;13107;51.304;6.866;2023-07-09T04:36:29;6.82;;;4.35;;
25127;SDS011;13107;51.304;6.866;2023-07-09T04:40:31;9.13;;;5.05;;
25127;SDS011;13107;51.304;6.866;2023-07-09T04:44:33;9.77;;;4.40;;
25127;SDS011;13107;51.304;6.866;2023-07-09T04:48:38;7.10;;;4.85;;
25127;SDS011;13107;51.304;6.866;2023-07-09T04:52:40;9.27;;;4.82;;
25127;SDS011;13107;51.304;6.866;2023-07-09T04:56:42;6.55;;;4.53;;
25127;SDS011;13107;51.304;6.866;2023-07-09T05:00:46;6.22;;;4.40;;
25127;SDS011;13107;51.304;6.866;2023-07-09T05:04:49;10.32;;;4.50;;
25127;SDS011;13107;51.304;6.866;2023-07-09T05:08:50;8.18;;;4.47;;
25127;SDS011;13107;51.304;6.866;2023-07-09T05:12:53;7.50;;;4.18;;
25127;SDS011;13107;51.304;6.866;2023-07-09T05:16:56;7.10;;;4.32;;
25127;SDS011;13107;51.304;6.866;2023-07-09T05:20:57;8.52;;;4.65;;
25127;SDS011;13107;51.304;6.866;2023-07-09T05:24:59;8.30;;;4.70;;
25127;SDS011;13107;51.304;6.866;2023-07-09T05:29:04;6.93;;;4.43;;
25127;SDS011;13107;51.304;6.866;2023-07-09T05:33:06;8.35;;;4.80;;
25127;SDS011;13107;51.304;6.866;2023-07-09T05:37:08;9.18;;;4.28;;
25127;SDS011;13107;51.304;6.866;2023-07-09T05:41:10;7.22;;;3.83;;
25127;SDS011;13107;51.304;6.866;2023-07-09T05:45:12;8.07;;;4.72;;
25127;SDS011;13107;51.304;6.866;2023-07-09T05:49:15;5.07;;;4.10;;
25127;SDS011;13107;51.304;6.866;2023-07-09T05:53:17;8.73;;;4.60;;
25127;SDS011;13107;51.304;6.866;2023-07-09T05:57:19;12.30;;;4.43;;
25127;SDS011;13107;51.304;6.866;2023-07-09T06:01:22;8.70;;;4.62;;
25127;SDS011;13107;51.304;6.866;2023-07-09T06:05:24;6.57;;;3.95;;
25127;SDS011;13107;51.304;6.866;2023-07-09T06:09:26;8.02;;;4.12;;
25127;SDS011;13107;51.304;6.866;2023-07-09T06:13:28;6.70;;;4.25;;
25127;SDS011;13107;51.304;6.866;2023-07-09T06:17:34;7.30;;;4.22;;
25127;SDS011;13107;51.304;6.866;2023-07-09T06:21:36;6.40;;;4.12;;
25127;SDS011;13107;51.304;6.866;2023-07-09T06:25:38;7.70;;;4.43;;
25127;SDS011;13107;51.304;6.866;2023-07-09T06:29:40;10.63;;;4.12;;
25127;SDS011;13107;51.304;6.866;2023-07-09T06:33:42;6.43;;;3.92;;
25127;SDS011;13107;51.304;6.866;2023-07-09T06:37:44;6.78;;;4.40;;
25127;SDS011;13107;51.304;6.866;2023-07-09T06:41:46;7.45;;;4.37;;
25127;SDS011;13107;51.304;6.866;2023-07-09T06:46:00;7.30;;;4.37;;
25127;SDS011;13107;51.304;6.866;2023-07-09T06:50:03;7.40;;;4.37;;
25127;SDS011;13107;51.304;6.866;2023-07-09T06:54:05;8.52;;;4.20;;
25127;SDS011;13107;51.304;6.866;2023-07-09T06:58:10;5.55;;;4.37;;
25127;SDS011;13107;51.304;6.866;2023-07-09T07:02:11;10.13;;;5.22;;
25127;SDS011;13107;51.304;6.866;2023-07-09T07:06:13;8.40;;;4.82;;
25127;SDS011;13107;51.304;6.866;2023-07-09T07:10:16;9.77;;;4.78;;
25127;SDS011;13107;51.304;6.866;2023-07-09T07:14:18;6.05;;;4.32;;
25127;SDS011;13107;51.304;6.866;2023-07-09T07:18:20;8.80;;;4.20;;
25127;SDS011;13107;51.304;6.866;2023-07-09T07:22:22;6.90;;;4.20;;
25127;SDS011;13107;51.304;6.866;2023-07-09T07:26:24;7.60;;;4.30;;
25127;SDS011;13107;51.304;6.866;2023-07-09T07:30:25;8.32;;;4.55;;
25127;SDS011;13107;51.304;6.866;2023-07-09T07:34:27;7.78;;;4.35;;
25127;SDS011;13107;51.304;6.866;2023-07-09T07:38:29;9.00;;;4.53;;
25127;SDS011;13107;51.304;6.866;2023-07-09T07:42:31;7.15;;;4.75;;
25127;SDS011;13107;51.304;6.866;2023-07-09T07:46:34;7.87;;;4.70;;
25127;SDS011;13107;51.304;6.866;2023-07-09T07:50:36;9.07;;;4.68;;
25127;SDS011;13107;51.304;6.866;2023-07-09T07:54:39;7.95;;;4.72;;
25127;SDS011;13107;51.304;6.866;2023-07-09T07:58:41;7.70;;;4.30;;
25127;SDS011;13107;51.304;6.866;2023-07-09T08:02:43;7.50;;;4.22;;
25127;SDS011;13107;51.304;6.866;2023-07-09T08:06:45;8.65;;;5.07;;
25127;SDS011;13107;51.304;6.866;2023-07-09T08:10:48;8.07;;;4.18;;
25127;SDS011;13107;51.304;6.866;2023-07-09T08:14:51;6.90;;;4.43;;
25127;SDS011;13107;51.304;6.866;2023-07-09T08:18:53;8.93;;;5.22;;
25127;SDS011;13107;51.304;6.866;2023-07-09T08:22:55;9.35;;;5.12;;
25127;SDS011;13107;51.304;6.866;2023-07-09T08:26:57;7.80;;;4.80;;
25127;SDS011;13107;51.304;6.866;2023-07-09T08:31:01;10.93;;;4.85;;
25127;SDS011;13107;51.304;6.866;2023-07-09T08:35:04;6.70;;;4.87;;
25127;SDS011;13107;51.304;6.866;2023-07-09T08:39:26;12.27;;;5.30;;
25127;SDS011;13107;51.304;6.866;2023-07-09T08:52:12;7.78;;;4.95;;
25127;SDS011;13107;51.304;6.866;2023-07-09T08:56:36;6.18;;;5.18;;
25127;SDS011;13107;51.304;6.866;2023-07-09T09:04:51;7.00;;;4.90;;
25127;SDS011;13107;51.304;6.866;2023-07-09T09:09:02;10.07;;;5.00;;
25127;SDS011;13107;51.304;6.866;2023-07-09T09:13:23;10.38;;;4.72;;
25127;SDS011;13107;51.304;6.866;2023-07-09T09:17:38;7.37;;;4.40;;
25127;SDS011;13107;51.304;6.866;2023-07-09T09:21:41;7.90;;;4.65;;
25127;SDS011;13107;51.304;6.866;2023-07-09T09:25:46;6.60;;;4.53;;
25127;SDS011;13107;51.304;6.866;2023-07-09T09:30:17;6.60;;;3.95;;
25127;SDS011;13107;51.304;6.866;2023-07-09T09:34:22;5.82;;;4.22;;
25127;SDS011;13107;51.304;6.866;2023-07-09T09:38:27;9.68;;;4.22;;
25127;SDS011;13107;51.304;6.866;2023-07-09T09:42:29;9.23;;;3.70;;
25127;SDS011;13107;51.304;6.866;2023-07-09T09:46:31;6.10;;;3.83;;
25127;SDS011;13107;51.304;6.866;2023-07-09T09:50:34;6.75;;;3.75;;
25127;SDS011;13107;51.304;6.866;2023-07-09T09:54:36;7.93;;;4.22;;
25127;SDS011;13107;51.304;6.866;2023-07-09T09:58:42;8.77;;;4.12;;
25127;SDS011;13107;51.304;6.866;2023-07-09T10:02:44;7.57;;;4.12;;
25127;SDS011;13107;51.304;6.866;2023-07-09T10:06:50;11.90;;;4.55;;
25127;SDS011;13107;51.304;6.866;2023-07-09T10:11:11;6.07;;;3.75;;
25127;SDS011;13107;51.304;6.866;2023-07-09T10:19:35;9.00;;;3.70;;
25127;SDS011;13107;51.304;6.866;2023-07-09T10:32:52;5.80;;;3.70;;
25127;SDS011;13107;51.304;6.866;2023-07-09T10:41:15;6.30;;;3.20;;
25127;SDS011;13107;51.304;6.866;2023-07-09T10:45:32;10.73;;;3.65;;
25127;SDS011;13107;51.304;6.866;2023-07-09T10:49:47;5.85;;;3.42;;
25127;SDS011;13107;51.304;6.866;2023-07-09T10:53:51;5.53;;;3.45;;
25127;SDS011;13107;51.304;6.866;2023-07-09T10:58:39;9.30;;;3.45;;
25127;SDS011;13107;51.304;6.866;2023-07-09T11:02:35;5.18;;;3.47;;
25127;SDS011;13107;51.304;6.866;2023-07-09T11:06:41;9.18;;;3.55;;
25127;SDS011;13107;51.304;6.866;2023-07-09T11:11:09;7.87;;;3.83;;
25127;SDS011;13107;51.304;6.866;2023-07-09T11:15:20;5.00;;;3.45;;
25127;SDS011;13107;51.304;6.866;2023-07-09T11:19:28;4.95;;;3.37;;
25127;SDS011;13107;51.304;6.866;2023-07-09T11:23:37;7.53;;;3.80;;
25127;SDS011;13107;51.304;6.866;2023-07-09T11:27:54;6.75;;;3.65;;
25127;SDS011;13107;51.304;6.866;2023-07-09T11:32:08;7.05;;;3.33;;
25127;SDS011;13107;51.304;6.866;2023-07-09T11:36:22;6.65;;;3.10;;
25127;SDS011;13107;51.304;6.866;2023-07-09T11:40:27;6.82;;;3.55;;
25127;SDS011;13107;51.304;6.866;2023-07-09T11:44:30;4.70;;;3.08;;
25127;SDS011;13107;51.304;6.866;2023-07-09T11:48:33;8.98;;;3.30;;
25127;SDS011;13107;51.304;6.866;2023-07-09T11:52:42;7.07;;;3.20;;
25127;SDS011;13107;51.304;6.866;2023-07-09T11:56:58;4.80;;;2.92;;
25127;SDS011;13107;51.304;6.866;2023-07-09T12:01:03;5.05;;;3.03;;
25127;SDS011;13107;51.304;6.866;2023-07-09T12:05:14;6.30;;;3.40;;
25127;SDS011;13107;51.304;6.866;2023-07-09T12:09:22;4.82;;;3.35;;
25127;SDS011;13107;51.304;6.866;2023-07-09T12:13:24;6.43;;;3.85;;
25127;SDS011;13107;51.304;6.866;2023-07-09T12:17:26;6.68;;;3.72;;
25127;SDS011;13107;51.304;6.866;2023-07-09T12:21:30;7.28;;;3.62;;
25127;SDS011;13107;51.304;6.866;2023-07-09T12:25:39;6.20;;;3.47;;
25127;SDS011;13107;51.304;6.866;2023-07-09T12:29:49;5.78;;;3.50;;
25127;SDS011;13107;51.304;6.866;2023-07-09T12:33:53;6.47;;;3.92;;
25127;SDS011;13107;51.304;6.866;2023-07-09T12:37:56;4.87;;;3.40;;
25127;SDS011;13107;51.304;6.866;2023-07-09T12:42:00;7.68;;;3.83;;
25127;SDS011;13107;51.304;6.866;2023-07-09T12:46:03;6.65;;;4.07;;
25127;SDS011;13107;51.304;6.866;2023-07-09T12:54:34;7.22;;;4.30;;
25127;SDS011;13107;51.304;6.866;2023-07-09T12:58:36;5.97;;;4.30;;
25127;SDS011;13107;51.304;6.866;2023-07-09T13:02:39;9.10;;;4.15;;
25127;SDS011;13107;51.304;6.866;2023-07-09T13:06:41;5.37;;;3.45;;
25127;SDS011;13107;51.304;6.866;2023-07-09T13:10:44;8.20;;;3.92;;
25127;SDS011;13107;51.304;6.866;2023-07-09T13:15:03;8.02;;;4.05;;
25127;SDS011;13107;51.304;6.866;2023-07-09T13:19:05;6.10;;;3.95;;
25127;SDS011;13107;51.304;6.866;2023-07-09T13:23:11;6.40;;;4.35;;
25127;SDS011;13107;51.304;6.866;2023-07-09T13:27:16;5.25;;;3.90;;
25127;SDS011;13107;51.304;6.866;2023-07-09T13:31:19;9.48;;;4.18;;
25127;SDS011;13107;51.304;6.866;2023-07-09T13:35:21;11.02;;;4.12;;
25127;SDS011;13107;51.304;6.866;2023-07-09T13:39:23;9.35;;;5.10;;
25127;SDS011;13107;51.304;6.866;2023-07-09T13:43:33;7.37;;;4.20;;
25127;SDS011;13107;51.304;6.866;2023-07-09T13:47:36;7.62;;;4.40;;
25127;SDS011;13107;51.304;6.866;2023-07-09T13:51:38;8.20;;;4.70;;
25127;SDS011;13107;51.304;6.866;2023-07-09T13:55:40;9.68;;;4.45;;
25127;SDS011;13107;51.304;6.866;2023-07-09T13:59:43;6.85;;;4.40;;
25127;SDS011;13107;51.304;6.866;2023-07-09T14:03:46;6.40;;;3.87;;
25127;SDS011;13107;51.304;6.866;2023-07-09T14:07:47;8.07;;;4.28;;
25127;SDS011;13107;51.304;6.866;2023-07-09T14:11:51;6.45;;;4.50;;
25127;SDS011;13107;51.304;6.866;2023-07-09T14:15:54;9.07;;;4.00;;
25127;SDS011;13107;51.304;6.866;2023-07-09T14:19:55;6.87;;;3.97;;
25127;SDS011;13107;51.304;6.866;2023-07-09T14:24:00;13.65;;;4.30;;
25127;SDS011;13107;51.304;6.866;2023-07-09T14:28:04;7.70;;;3.60;;
25127;SDS011;13107;51.304;6.866;2023-07-09T14:32:23;9.73;;;3.75;;
25127;SDS011;13107;51.304;6.866;2023-07-09T14:36:38;8.18;;;4.22;;
25127;SDS011;13107;51.304;6.866;2023-07-09T14:40:39;12.68;;;4.35;;
25127;SDS011;13107;51.304;6.866;2023-07-09T14:44:41;10.05;;;4.05;;
25127;SDS011;13107;51.304;6.866;2023-07-09T14:48:43;8.77;;;4.07;;
25127;SDS011;13107;51.304;6.866;2023-07-09T14:52:45;9.65;;;5.07;;
25127;SDS011;13107;51.304;6.866;2023-07-09T14:56:48;7.45;;;4.00;;
25127;SDS011;13107;51.304;6.866;2023-07-09T15:00:51;8.15;;;4.47;;
25127;SDS011;13107;51.304;6.866;2023-07-09T15:04:53;6.70;;;4.20;;
25127;SDS011;13107;51.304;6.866;2023-07-09T15:08:59;8.27;;;5.15;;
25127;SDS011;13107;51.304;6.866;2023-07-09T15:13:01;9.20;;;5.20;;
25127;SDS011;13107;51.304;6.866;2023-07-09T15:17:04;7.20;;;5.05;;
25127;SDS011;13107;51.304;6.866;2023-07-09T15:21:06;7.90;;;5.28;;
25127;SDS011;13107;51.304;6.866;2023-07-09T15:25:10;8.07;;;5.00;;
25127;SDS011;13107;51.304;6.866;2023-07-09T15:29:15;11.55;;;5.62;;
25127;SDS011;13107;51.304;6.866;2023-07-09T15:33:17;7.68;;;5.00;;
25127;SDS011;13107;51.304;6.866;2023-07-09T15:37:21;8.55;;;5.40;;
25127;SDS011;13107;51.304;6.866;2023-07-09T15:41:23;9.60;;;5.05;;
25127;SDS011;13107;51.304;6.866;2023-07-09T15:45:25;8.18;;;5.50;;
25127;SDS011;13107;51.304;6.866;2023-07-09T15:49:27;7.65;;;5.07;;
25127;SDS011;13107;51.304;6.866;2023-07-09T15:53:29;5.93;;;4.82;;
25127;SDS011;13107;51.304;6.866;2023-07-09T15:57:31;7.70;;;4.43;;
25127;SDS011;13107;51.304;6.866;2023-07-09T16:01:42;9.05;;;5.20;;
25127;SDS011;13107;51.304;6.866;2023-07-09T16:05:44;8.35;;;5.18;;
25127;SDS011;13107;51.304;6.866;2023-07-09T16:09:46;9.32;;;5.43;;
25127;SDS011;13107;51.304;6.866;2023-07-09T16:13:48;10.38;;;6.32;;
25127;SDS011;13107;51.304;6.866;2023-07-09T16:17:51;7.72;;;5.47;;
25127;SDS011;13107;51.304;6.866;2023-07-09T16:22:03;9.45;;;5.75;;
25127;SDS011;13107;51.304;6.866;2023-07-09T16:26:08;7.43;;;4.57;;
25127;SDS011;13107;51.304;6.866;2023-07-09T16:30:21;5.18;;;4.43;;
25127;SDS011;13107;51.304;6.866;2023-07-09T16:34:26;7.70;;;5.35;;
25127;SDS011;13107;51.304;6.866;2023-07-09T16:38:30;9.27;;;5.60;;
25127;SDS011;13107;51.304;6.866;2023-07-09T16:42:33;8.52;;;5.37;;
25127;SDS011;13107;51.304;6.866;2023-07-09T16:46:36;9.73;;;5.03;;
25127;SDS011;13107;51.304;6.866;2023-07-09T16:50:38;8.50;;;5.97;;
25127;SDS011;13107;51.304;6.866;2023-07-09T16:54:40;8.80;;;5.90;;
25127;SDS011;13107;51.304;6.866;2023-07-09T16:58:42;9.02;;;5.85;;
25127;SDS011;13107;51.304;6.866;2023-07-09T17:02:44;7.28;;;5.18;;
25127;SDS011;13107;51.304;6.866;2023-07-09T17:06:45;9.80;;;6.18;;
25127;SDS011;13107;51.304;6.866;2023-07-09T17:10:48;10.70;;;6.68;;
25127;SDS011;13107;51.304;6.866;2023-07-09T17:14:50;9.35;;;5.95;;
25127;SDS011;13107;51.304;6.866;2023-07-09T17:18:52;15.23;;;7.75;;
25127;SDS011;13107;51.304;6.866;2023-07-09T17:22:55;9.52;;;5.62;;
25127;SDS011;13107;51.304;6.866;2023-07-09T17:26:57;10.38;;;5.87;;
25127;SDS011;13107;51.304;6.866;2023-07-09T17:30:59;9.20;;;5.30;;
25127;SDS011;13107;51.304;6.866;2023-07-09T17:35:01;9.90;;;5.30;;
25127;SDS011;13107;51.304;6.866;2023-07-09T17:39:04;6.22;;;5.07;;
25127;SDS011;13107;51.304;6.866;2023-07-09T17:43:25;10.25;;;5.50;;
25127;SDS011;13107;51.304;6.866;2023-07-09T17:47:27;8.50;;;5.62;;
25127;SDS011;13107;51.304;6.866;2023-07-09T17:51:29;5.10;;;4.60;;
25127;SDS011;13107;51.304;6.866;2023-07-09T17:55:31;7.43;;;5.35;;
25127;SDS011;13107;51.304;6.866;2023-07-09T17:59:33;8.23;;;5.53;;
25127;SDS011;13107;51.304;6.866;2023-07-09T18:03:37;9.00;;;5.65;;
25127;SDS011;13107;51.304;6.866;2023-07-09T18:07:39;7.37;;;5.07;;
25127;SDS011;13107;51.304;6.866;2023-07-09T18:11:42;6.28;;;5.10;;
25127;SDS011;13107;51.304;6.866;2023-07-09T18:15:44;7.95;;;5.57;;
25127;SDS011;13107;51.304;6.866;2023-07-09T18:19:46;8.02;;;5.57;;
25127;SDS011;13107;51.304;6.866;2023-07-09T18:23:48;8.63;;;5.20;;
25127;SDS011;13107;51.304;6.866;2023-07-09T18:27:53;7.37;;;5.95;;
25127;SDS011;13107;51.304;6.866;2023-07-09T18:31:57;7.18;;;5.18;;
25127;SDS011;13107;51.304;6.866;2023-07-09T18:36:04;10.45;;;5.68;;
25127;SDS011;13107;51.304;6.866;2023-07-09T18:40:06;7.70;;;5.53;;
25127;SDS011;13107;51.304;6.866;2023-07-09T18:44:20;7.62;;;5.60;;
25127;SDS011;13107;51.304;6.866;2023-07-09T18:48:22;7.97;;;5.62;;
25127;SDS011;13107;51.304;6.866;2023-07-09T18:52:25;10.02;;;5.40;;
25127;SDS011;13107;51.304;6.866;2023-07-09T18:56:29;8.52;;;6.00;;
25127;SDS011;13107;51.304;6.866;2023-07-09T19:00:32;8.85;;;5.82;;
25127;SDS011;13107;51.304;6.866;2023-07-09T19:04:34;7.47;;;5.32;;
25127;SDS011;13107;51.304;6.866;2023-07-09T19:08:36;6.75;;;5.57;;
25127;SDS011;13107;51.304;6.866;2023-07-09T19:12:38;7.95;;;5.93;;
25127;SDS011;13107;51.304;6.866;2023-07-09T19:16:40;8.10;;;5.87;;
25127;SDS011;13107;51.304;6.866;2023-07-09T19:20:50;9.57;;;6.22;;
25127;SDS011;13107;51.304;6.866;2023-07-09T19:24:53;12.60;;;6.18;;
25127;SDS011;13107;51.304;6.866;2023-07-09T19:28:55;9.77;;;6.57;;
25127;SDS011;13107;51.304;6.866;2023-07-09T19:32:57;7.65;;;6.20;;
25127;SDS011;13107;51.304;6.866;2023-07-09T19:37:02;11.15;;;6.30;;
25127;SDS011;13107;51.304;6.866;2023-07-09T19:41:13;10.00;;;6.97;;
25127;SDS011;13107;51.304;6.866;2023-07-09T19:45:17;7.45;;;5.85;;
25127;SDS011;13107;51.304;6.866;2023-07-09T19:49:22;6.70;;;6.00;;
25127;SDS011;13107;51.304;6.866;2023-07-09T19:53:25;8.65;;;6.30;;
25127;SDS011;13107;51.304;6.866;2023-07-09T19:57:29;9.57;;;6.57;;
25127;SDS011;13107;51.304;6.866;2023-07-09T20:01:31;9.43;;;7.95;;
25127;SDS011;13107;51.304;6.866;2023-07-09T20:05:33;9.85;;;7.10;;
25127;SDS011;13107;51.304;6.866;2023-07-09T20:09:34;9.30;;;7.12;;
25127;SDS011;13107;51.304;6.866;2023-07-09T20:13:36;12.30;;;8.70;;
25127;SDS011;13107;51.304;6.866;2023-07-09T20:17:38;10.68;;;8.48;;
25127;SDS011;13107;51.304;6.866;2023-07-09T20:21:41;12.35;;;8.70;;
25127;SDS011;13107;51.304;6.866;2023-07-09T20:25:44;12.82;;;9.32;;
25127;SDS011;13107;51.304;6.866;2023-07-09T20:29:46;10.18;;;8.23;;
25127;SDS011;13107;51.304;6.866;2023-07-09T20:33:48;13.00;;;9.18;;
25127;SDS011;13107;51.304;6.866;2023-07-09T20:38:17;11.40;;;9.38;;
25127;SDS011;13107;51.304;6.866;2023-07-09T20:42:20;13.35;;;9.43;;
25127;SDS011;13107;51.304;6.866;2023-07-09T20:46:22;12.55;;;8.77;;
25127;SDS011;13107;51.304;6.866;2023-07-09T20:50:24;12.25;;;9.52;;
25127;SDS011;13107;51.304;6.866;2023-07-09T20:54:28;13.25;;;9.98;;
25127;SDS011;13107;51.304;6.866;2023-07-09T20:58:30;14.85;;;10.52;;
25127;SDS011;13107;51.304;6.866;2023-07-09T21:02:32;14.43;;;11.32;;
25127;SDS011;13107;51.304;6.866;2023-07-09T21:06:34;16.50;;;11.15;;
25127;SDS011;13107;51.304;6.866;2023-07-09T21:10:36;17.60;;;13.07;;
25127;SDS011;13107;51.304;6.866;2023-07-09T21:14:38;14.05;;;12.37;;
25127;SDS011;13107;51.304;6.866;2023-07-09T21:18:40;17.05;;;11.18;;
25127;SDS011;13107;51.304;6.866;2023-07-09T21:22:42;17.05;;;13.02;;
25127;SDS011;13107;51.304;6.866;2023-07-09T21:26:44;15.23;;;11.30;;
25127;SDS011;13107;51.304;6.866;2023-07-09T21:30:46;15.55;;;12.30;;
25127;SDS011;13107;51.304;6.866;2023-07-09T21:34:48;17.45;;;13.95;;
25127;SDS011;13107;51.304;6.866;2023-07-09T21:38:53;13.98;;;12.52;;
25127;SDS011;13107;51.304;6.866;2023-07-09T21:42:55;17.17;;;15.40;;
25127;SDS011;13107;51.304;6.866;2023-07-09T21:46:59;16.67;;;14.87;;
25127;SDS011;13107;51.304;6.866;2023-07-09T21:51:07;14.02;;;12.13;;
25127;SDS011;13107;51.304;6.866;2023-07-09T21:55:18;14.90;;;13.40;;
25127;SDS011;13107;51.304;6.866;2023-07-09T21:59:22;14.52;;;12.37;;
25127;SDS011;13107;51.304;6.866;2023-07-09T22:03:25;16.30;;;12.40;;
25127;SDS011;13107;51.304;6.866;2023-07-09T22:07:27;16.92;;;13.10;;
25127;SDS011;13107;51.304;6.866;2023-07-09T22:11:31;17.27;;;14.05;;
25127;SDS011;13107;51.304;6.866;2023-07-09T22:15:34;13.62;;;12.23;;
25127;SDS011;13107;51.304;6.866;2023-07-09T22:19:36;16.37;;;13.88;;
25127;SDS011;13107;51.304;6.866;2023-07-09T22:23:45;13.55;;;11.93;;
25127;SDS011;13107;51.304;6.866;2023-07-09T22:27:47;13.32;;;11.95;;
25127;SDS011;13107;51.304;6.866;2023-07-09T22:31:49;12.88;;;11.57;;
25127;SDS011;13107;51.304;6.866;2023-07-09T22:35:51;15.02;;;12.02;;
25127;SDS011;13107;51.304;6.866;2023-07-09T22:39:58;15.90;;;11.38;;
25127;SDS011;13107;51.304;6.866;2023-07-09T22:44:20;14.05;;;10.73;;
25127;SDS011;13107;51.304;6.866;2023-07-09T22:48:22;13.90;;;11.15;;
25127;SDS011;13107;51.304;6.866;2023-07-09T22:52:24;15.55;;;11.45;;
25127;SDS011;13107;51.304;6.866;2023-07-09T22:56:26;15.35;;;13.73;;
25127;SDS011;13107;51.304;6.866;2023-07-09T23:00:29;13.27;;;11.82;;
25127;SDS011;13107;51.304;6.866;2023-07-09T23:04:34;15.88;;;13.88;;
25127;SDS011;13107;51.304;6.866;2023-07-09T23:08:36;15.05;;;13.25;;
25127;SDS011;13107;51.304;6.866;2023-07-09T23:12:38;14.77;;;13.27;;
25127;SDS011;13107;51.304;6.866;2023-07-09T23:16:41;15.98;;;14.35;;
25127;SDS011;13107;51.304;6.866;2023-07-09T23:20:46;14.77;;;13.20;;
25127;SDS011;13107;51.304;6.866;2023-07-09T23:24:48;15.88;;;14.13;;
25127;SDS011;13107;51.304;6.866;2023-07-09T23:28:50;17.33;;;15.60;;
25127;SDS011;13107;51.304;6.866;2023-07-09T23:32:52;15.68;;;11.82;;
25127;SDS011;13107;51.304;6.866;2023-07-09T23:36:59;21.95;;;15.88;;
25127;SDS011;13107;51.304;6.866;2023-07-09T23:41:01;16.95;;;14.35;;
25127;SDS011;13107;51.304;6.866;2023-07-09T23:45:06;15.20;;;12.95;;
25127;SDS011;13107;51.304;6.866;2023-07-09T23:49:19;16.02;;;14.32;;
25127;SDS011;13107;51.304;6.866;2023-07-09T23:53:25;19.20;;;15.13;;
25127;SDS011;13107;51.304;6.866;2023-07-09T23:57:31;19.15;;;14.57;;
